Pierceville, IN (47039)

8:33 AM EDT on August 04, 2015 (GMT -0400)
APRSWXNET | | Change Station
CLOSE
Current Station
Personal Weather Station
Location: Versailles, IN
Elevation: 961 ft
Nearby Weather Stations

Elev 961 ft 39.07 °N, 85.25 °W | Updated 25 minutes ago

Partly Cloudy
Partly Cloudy
65 °F
Feels Like 65 °F
N
0
Wind Variable Wind from West
Gusts 0.0 mph

Today
High -- | Low -- °F
--% Chance of Precip.
Yesterday
High -- | Low -- °F
Precip. -- in
6:43 AM 8:49 PM
Waning Gibbous, 78% visible
Pressure 29.95 in
Visibility 7.0 miles
Clouds Few 6000 ft
Scattered Clouds 30000 ft
Dew Point 64 °F
Humidity 97%
Rainfall in
Snow Depth Not available.
UV 1 out of 12
Pollen 6.60 out of 12
Air Quality Not available.
Flu Activity Not available.
METAR KCVG 041152Z 14003KT 7SM FEW060 SCT300 21/19 A2997 RMK AO2 SLP141 T02060189 10211 20172 51010

More Conditions Fewer Conditions

Pressure 29.95 in
Visibility 7.0 miles
Clouds Few 6000 ft
Scattered Clouds 30000 ft
Dew Point 64 °F
Humidity 97%
Rainfall in
Snow Depth Not available.
UV 1 out of 12
Pollen 6.60 out of 12
Air Quality Not available.
Flu Activity Not available.
METAR KCVG 041152Z 14003KT 7SM FEW060 SCT300 21/19 A2997 RMK AO2 SLP141 T02060189 10211 20172 51010

More Conditions Fewer Conditions

10-Day Weather Forecast

×

Almanac

Astronomy

Aug. 04, 2015 Rise Set
Actual Time
Civil Twilight
Nautical Twilight
Astronomical Twilight
Moon
Length of Visible Light
Length of Day
Tomorrow will be .
, % of the Moon is Illuminated

Today's Extremes

State Highs State Lows

Community

WunderPhotos

Upload Photos

1,843,911 photos uploaded!

WunderBlogs® & News

Nearby

Air Quality

  Air Quality AQ Index Pollutant
Not available.

Snow Depth

Station Depth Elevation

Earthquake Activity

City Distance Mag. Time & Date
Minimum magnitude displayed is 2.5.

Coastal Water Temperatures

Place Temperature

Stations

Nearby Weather Stations

Station Location Temp. Windchill Dew Point Humidity Wind Precip. Elev Updated Type